createdAt,value
2018-08-25T00:03:29.589Z,100493.62
2018-08-25T00:08:38.894Z,100487.09
2018-08-25T00:13:46.888Z,100491.44
2018-08-25T00:18:53.471Z,100486.78
2018-08-25T00:24:00.495Z,100485.44
2018-08-25T00:29:07.872Z,100487.09
2018-08-25T00:34:15.920Z,100488.37
2018-08-25T00:39:22.713Z,100484.55
2018-08-25T00:44:29.861Z,100490.92
2018-08-25T00:49:36.697Z,100497.20
2018-08-25T00:54:43.033Z,100498.33
2018-08-25T00:59:49.781Z,100489.84
2018-08-25T01:04:55.761Z,100485.12
2018-08-25T01:10:01.408Z,100485.91
2018-08-25T01:15:06.384Z,100478.14
2018-08-25T01:20:11.896Z,100481.95
2018-08-25T01:25:17.981Z,100486.79
2018-08-25T01:30:23.830Z,100488.07
2018-08-25T01:35:30.702Z,100479.80
2018-08-25T01:40:36.794Z,100483.17
2018-08-25T01:45:43.343Z,100469.89
2018-08-25T01:50:49.646Z,100452.95
2018-08-25T01:55:55.420Z,100453.34
2018-08-25T02:01:00.835Z,100444.86
2018-08-25T02:06:08.658Z,100444.05
2018-08-25T02:11:12.633Z,100445.94
2018-08-25T02:16:16.925Z,100444.63
2018-08-25T02:21:20.886Z,100447.00
2018-08-25T02:26:27.473Z,100429.65
2018-08-25T02:31:33.055Z,100439.75
2018-08-25T02:36:38.855Z,100446.78
2018-08-25T02:41:44.827Z,100443.69
2018-08-25T02:46:50.855Z,100436.84
2018-08-25T02:51:56.580Z,100432.52
2018-08-25T02:57:03.343Z,100427.37
2018-08-25T03:02:09.445Z,100422.66
2018-08-25T03:07:15.175Z,100418.38
2018-08-25T03:12:20.613Z,100419.35
2018-08-25T03:17:24.838Z,100417.59
2018-08-25T03:22:29.514Z,100413.33
2018-08-25T03:27:33.686Z,100409.87
2018-08-25T03:32:38.367Z,100404.31
2018-08-25T03:37:43.638Z,100412.22
2018-08-25T03:42:48.725Z,100409.13
2018-08-25T03:47:53.006Z,100402.76
2018-08-25T03:52:57.485Z,100393.07
2018-08-25T03:58:03.875Z,100384.61
2018-08-25T04:03:10.090Z,100386.28
2018-08-25T04:08:15.950Z,100387.86
2018-08-25T04:13:21.501Z,100381.52
2018-08-25T04:18:26.882Z,100382.34
2018-08-25T04:23:32.280Z,100371.73
2018-08-25T04:28:38.389Z,100374.72
2018-08-25T04:33:43.863Z,100369.11
2018-08-25T04:38:51.040Z,100363.64
2018-08-25T04:43:55.643Z,100361.45
2018-08-25T04:48:59.367Z,100361.76
2018-08-25T04:54:03.208Z,100355.84
2018-08-25T04:59:06.983Z,100364.89
2018-08-25T05:04:09.251Z,100365.84
2018-08-25T05:09:11.387Z,100356.77
2018-08-25T05:14:13.487Z,100355.24
2018-08-25T05:19:15.630Z,100354.08
2018-08-25T05:24:17.726Z,100349.39
2018-08-25T05:29:19.892Z,100354.16
2018-08-25T05:34:22.004Z,100356.39
2018-08-25T05:39:24.160Z,100351.52
2018-08-25T05:44:26.363Z,100347.58
2018-08-25T05:49:28.780Z,100342.55
2018-08-25T05:54:30.915Z,100341.47
2018-08-25T05:59:33.065Z,100345.30
2018-08-25T06:04:35.181Z,100334.80
2018-08-25T06:09:37.320Z,100336.69
2018-08-25T06:14:39.448Z,100349.13
2018-08-25T06:19:41.606Z,100349.22
2018-08-25T06:24:43.718Z,100349.35
2018-08-25T06:29:46.007Z,100341.36
2018-08-25T06:34:48.048Z,100344.91
2018-08-25T06:39:50.163Z,100342.12
2018-08-25T06:44:52.337Z,100337.50
2018-08-25T06:49:54.519Z,100340.58
2018-08-25T06:54:56.708Z,100343.95
2018-08-25T06:59:58.887Z,100342.69
2018-08-25T07:05:01.072Z,100353.77
2018-08-25T07:10:03.260Z,100348.64
2018-08-25T07:15:05.659Z,100348.74
2018-08-25T07:20:07.846Z,100339.02
2018-08-25T07:25:10.009Z,100350.20
2018-08-25T07:30:12.193Z,100352.39
2018-08-25T07:35:14.347Z,100356.26
2018-08-25T07:40:16.559Z,100352.44
2018-08-25T07:45:18.784Z,100349.15
2018-08-25T07:50:20.943Z,100347.09
2018-08-25T07:55:23.141Z,100346.72
2018-08-25T08:00:25.477Z,100350.95
2018-08-25T08:05:27.727Z,100348.47
2018-08-25T08:10:29.835Z,100351.47
2018-08-25T08:15:32.052Z,100347.20
2018-08-25T08:20:34.200Z,100348.44
2018-08-25T08:25:36.410Z,100350.50
2018-08-25T08:30:38.536Z,100351.28
2018-08-25T08:35:40.702Z,100347.05
2018-08-25T08:40:42.843Z,100356.34
2018-08-25T08:45:45.028Z,100358.85
2018-08-25T08:50:47.171Z,100356.91
2018-08-25T08:55:49.308Z,100355.41
2018-08-25T09:00:51.462Z,100349.86
2018-08-25T09:05:53.587Z,100355.39
2018-08-25T09:10:55.774Z,100349.81
2018-08-25T09:15:58.363Z,100348.94
2018-08-25T09:21:00.528Z,100358.80
2018-08-25T09:26:02.730Z,100363.03
2018-08-25T09:31:05.125Z,100369.81
2018-08-25T09:36:07.351Z,100247.63
2018-08-25T09:41:09.569Z,100358.80
2018-08-25T09:46:11.795Z,100357.08
2018-08-25T09:51:14.082Z,100356.16
2018-08-25T09:56:16.340Z,100351.02
2018-08-25T10:01:24.284Z,100350.55
2018-08-25T10:06:26.491Z,100346.23
2018-08-25T10:11:28.669Z,100340.19
2018-08-25T10:16:31.027Z,100332.94
2018-08-25T10:21:33.105Z,100328.67
2018-08-25T10:26:35.260Z,100328.62
2018-08-25T10:31:37.443Z,100324.79
2018-08-25T10:36:39.896Z,100327.38
2018-08-25T10:41:42.487Z,100337.20
2018-08-25T10:46:44.605Z,100330.47
2018-08-25T10:51:46.786Z,100323.66
2018-08-25T10:56:49.008Z,100315.56
2018-08-25T11:01:51.179Z,100311.72
2018-08-25T11:06:53.337Z,100313.88
2018-08-25T11:11:55.561Z,100319.46
2018-08-25T11:16:57.779Z,100325.89
2018-08-25T11:21:59.920Z,100325.88
2018-08-25T11:27:02.100Z,100326.66
2018-08-25T11:32:04.491Z,100318.58
2018-08-25T11:37:06.915Z,100312.03
2018-08-25T11:42:09.078Z,100306.09
2018-08-25T11:47:13.203Z,100310.81
2018-08-25T11:52:15.423Z,100315.63
2018-08-25T11:57:17.660Z,100322.70
2018-08-25T12:02:20.814Z,100321.50
2018-08-25T12:07:22.961Z,100310.57
2018-08-25T12:12:25.169Z,100318.69
2018-08-25T12:17:27.375Z,100322.95
2018-08-25T12:22:29.568Z,100334.02
2018-08-25T12:27:31.720Z,100335.30
2018-08-25T12:32:33.958Z,100338.25
2018-08-25T12:37:36.135Z,100342.08
2018-08-25T12:42:39.020Z,100339.94
2018-08-25T12:47:41.221Z,100337.42
2018-08-25T12:52:43.416Z,100341.70
2018-08-25T12:57:45.637Z,100339.11
2018-08-25T13:02:47.911Z,100340.78
2018-08-25T13:07:50.094Z,100342.42
2018-08-25T13:12:52.313Z,100347.64
2018-08-25T13:17:54.544Z,100349.03
2018-08-25T13:22:57.035Z,100348.59
2018-08-25T13:27:59.215Z,100349.88
2018-08-25T13:33:01.378Z,100354.11
2018-08-25T13:38:03.644Z,100368.05
2018-08-25T13:43:05.843Z,100372.19
2018-08-25T13:48:08.017Z,100375.95
2018-08-25T13:53:10.218Z,100372.09
2018-08-25T13:58:12.439Z,100376.31
2018-08-25T14:03:14.595Z,100383.06
2018-08-25T14:08:16.940Z,100384.72
2018-08-25T14:13:19.039Z,100389.30
2018-08-25T14:18:21.256Z,100392.68
2018-08-25T14:23:23.410Z,100390.54
2018-08-25T14:28:25.642Z,100396.47
2018-08-25T14:33:27.826Z,100399.42
2018-08-25T14:38:29.988Z,100396.95
2018-08-25T14:43:32.179Z,100399.92
2018-08-25T14:48:34.381Z,100399.95
2018-08-25T14:53:36.549Z,100394.58
2018-08-25T14:58:38.733Z,100392.69
2018-08-25T15:03:40.940Z,100383.52
2018-08-25T15:08:43.163Z,100385.22
2018-08-25T15:13:45.346Z,100383.83
2018-08-25T15:18:47.686Z,100389.36
2018-08-25T15:23:49.820Z,100393.98
2018-08-25T15:28:52.000Z,100400.50
2018-08-25T15:33:54.496Z,100401.44
2018-08-25T15:38:56.669Z,100413.37
2018-08-25T15:43:58.844Z,100420.59
2018-08-25T15:49:01.017Z,100424.67
2018-08-25T15:54:03.204Z,100426.91
2018-08-25T15:59:05.447Z,100428.02
2018-08-25T16:04:07.632Z,100430.18
2018-08-25T16:09:10.414Z,100432.58
2018-08-25T16:14:12.599Z,100357.31
2018-08-25T16:19:14.784Z,100435.88
2018-08-25T16:24:16.931Z,100441.16
2018-08-25T16:29:19.146Z,100441.16
2018-08-25T16:34:21.310Z,100433.47
2018-08-25T16:39:23.541Z,100434.19
2018-08-25T16:44:25.734Z,100437.59
2018-08-25T16:49:27.999Z,100448.59
2018-08-25T16:54:30.132Z,100454.69
2018-08-25T16:59:32.298Z,100460.56
2018-08-25T17:04:34.493Z,100463.64
2018-08-25T17:09:36.668Z,100483.28
2018-08-25T17:14:38.857Z,100482.38
2018-08-25T17:19:41.383Z,100487.45
2018-08-25T17:24:43.553Z,100487.83
2018-08-25T17:29:45.770Z,100485.28
2018-08-25T17:34:48.052Z,100485.65
2018-08-25T17:39:50.245Z,100483.86
2018-08-25T17:44:52.430Z,100485.50
2018-08-25T17:49:54.674Z,100487.91
2018-08-25T17:54:56.846Z,100492.48
2018-08-25T17:59:59.023Z,100500.55
2018-08-25T18:05:01.247Z,100502.98
2018-08-25T18:10:03.520Z,100512.24
2018-08-25T18:15:06.229Z,100515.53
2018-08-25T18:20:08.565Z,100520.12
2018-08-25T18:25:10.748Z,100526.85
2018-08-25T18:30:12.960Z,100544.63
2018-08-25T18:35:15.404Z,100555.58
2018-08-25T18:40:17.628Z,100551.24
2018-08-25T18:45:19.851Z,100561.32
2018-08-25T18:50:22.142Z,100561.67
2018-08-25T18:55:24.366Z,100574.80
2018-08-25T19:00:26.610Z,100583.65
2018-08-25T19:05:28.771Z,100579.34
2018-08-25T19:10:30.922Z,100578.88
2018-08-25T19:15:33.126Z,100583.50
2018-08-25T19:20:35.313Z,100584.36
2018-08-25T19:25:37.835Z,100589.34
2018-08-25T19:30:40.067Z,100593.94
2018-08-25T19:35:42.308Z,100595.63
2018-08-25T19:40:44.460Z,100603.55
2018-08-25T19:45:46.653Z,100604.28
2018-08-25T19:50:48.910Z,100615.64
2018-08-25T19:55:51.208Z,100618.89
2018-08-25T20:00:53.387Z,100627.56
2018-08-25T20:05:56.078Z,100615.14
2018-08-25T20:10:58.304Z,100619.23
2018-08-25T20:16:00.519Z,100624.73
2018-08-25T20:21:02.714Z,100622.91
2018-08-25T20:26:04.959Z,100625.01
2018-08-25T20:31:07.176Z,100626.50
2018-08-25T20:36:09.354Z,100625.31
2018-08-25T20:41:11.577Z,100628.58
2018-08-25T20:46:13.794Z,100635.77
2018-08-25T20:51:16.046Z,100635.77
2018-08-25T20:56:18.216Z,100643.72
2018-08-25T21:01:20.425Z,100651.27
2018-08-25T21:06:22.659Z,100652.94
2018-08-25T21:11:24.844Z,100659.28
2018-08-25T21:16:27.053Z,100667.67
2018-08-25T21:21:29.309Z,100668.42
2018-08-25T21:26:31.472Z,100675.03
2018-08-25T21:31:33.676Z,100681.80
2018-08-25T21:36:35.862Z,100679.23
2018-08-25T21:41:38.248Z,100680.89
2018-08-25T21:46:40.435Z,100688.94
2018-08-25T21:51:42.653Z,100698.00
2018-08-25T21:56:44.831Z,100710.36
2018-08-25T22:01:53.448Z,100710.72
2018-08-25T22:06:56.471Z,100715.60
2018-08-25T22:11:58.650Z,100718.45
2018-08-25T22:17:00.880Z,100716.25
2018-08-25T22:22:03.024Z,100720.54
2018-08-25T22:27:05.208Z,100721.23
2018-08-25T22:32:07.690Z,100723.47
2018-08-25T22:37:09.882Z,100726.23
2018-08-25T22:42:12.165Z,100716.91
2018-08-25T22:47:16.671Z,100721.89
2018-08-25T22:52:23.459Z,100168.92
2018-08-25T22:57:26.816Z,100734.82
2018-08-25T23:02:35.338Z,100731.20
2018-08-25T23:07:40.314Z,100743.14
2018-08-25T23:12:42.430Z,100745.48
2018-08-25T23:17:48.497Z,100743.73
2018-08-25T23:22:51.031Z,100751.31
2018-08-25T23:27:53.178Z,100755.44
2018-08-25T23:32:55.334Z,100757.48
2018-08-25T23:37:57.627Z,100762.88
2018-08-25T23:42:59.754Z,100752.90
2018-08-25T23:48:01.871Z,100764.91
2018-08-25T23:53:04.228Z,100770.48
2018-08-25T23:58:06.389Z,100767.92
